Time;durP1;ratioP1;P1;durP2;ratioP2;P2;SDS_P1;SDS_P2;PMS_P1;PMS_P2;Temp;Humidity;BMP_temperature;BMP_pressure;BME280_temperature;BME280_humidity;BME280_pressure;Samples;Min_cycle;Max_cycle;Signal;HPM_P1;HPM_P2
2023/07/31 00:02:15;;;;;;;5.50;1.58;;;;;;;-145.41;100.00;58600.66;4980659;28;20038;-75
2023/07/31 00:04:41;;;;;;;4.22;1.42;;;;;;;-145.41;100.00;58600.66;4982419;28;20034;-75
2023/07/31 00:07:06;;;;;;;5.93;1.58;;;;;;;-145.41;100.00;58600.66;4981821;28;20452;-75
2023/07/31 00:09:32;;;;;;;3.83;1.35;;;;;;;-145.41;100.00;58600.66;4984922;28;20521;-75
2023/07/31 00:11:58;;;;;;;6.47;1.85;;;;;;;-145.41;100.00;58600.66;4984670;28;20060;-75
2023/07/31 00:14:23;;;;;;;6.47;1.48;;;;;;;-145.41;100.00;58600.66;4984028;28;20038;-75
2023/07/31 00:16:49;;;;;;;5.75;1.63;;;;;;;-145.41;100.00;58600.66;4981230;28;20082;-75
2023/07/31 00:19:14;;;;;;;4.78;1.58;;;;;;;-145.41;100.00;58600.66;4980853;28;20034;-75
2023/07/31 00:21:39;;;;;;;5.00;1.75;;;;;;;-145.41;100.00;58600.66;4981170;28;20130;-75
2023/07/31 00:24:04;;;;;;;7.60;2.22;;;;;;;-145.41;100.00;58600.66;4984609;28;20132;-75
2023/07/31 00:26:30;;;;;;;6.60;2.25;;;;;;;-145.41;100.00;58600.66;4983582;28;20078;-75
2023/07/31 00:28:55;;;;;;;4.90;1.65;;;;;;;-145.41;100.00;58600.66;4986245;28;20124;-75
2023/07/31 00:31:20;;;;;;;5.53;1.67;;;;;;;-145.41;100.00;58600.66;4984621;28;20049;-75
2023/07/31 00:33:47;;;;;;;4.80;1.73;;;;;;;-145.41;100.00;58600.66;4987255;28;20077;-74
2023/07/31 00:36:12;;;;;;;4.90;1.77;;;;;;;-145.41;100.00;58600.66;4984337;28;20034;-75
2023/07/31 00:38:38;;;;;;;6.13;1.70;;;;;;;-145.41;100.00;58600.66;4989287;28;20034;-75
2023/07/31 00:41:05;;;;;;;4.05;1.50;;;;;;;-145.41;100.00;58600.66;4981951;28;20035;-75
2023/07/31 00:43:30;;;;;;;4.47;1.52;;;;;;;-145.41;100.00;58600.66;4987355;28;20046;-75
2023/07/31 00:45:55;;;;;;;3.40;1.58;;;;;;;-145.41;100.00;58600.66;4983724;28;20038;-75
2023/07/31 00:48:21;;;;;;;7.82;1.55;;;;;;;-145.41;100.00;58600.66;4987011;28;20073;-75
2023/07/31 00:50:47;;;;;;;6.80;1.65;;;;;;;-145.41;100.00;58600.66;4983101;28;20117;-75
2023/07/31 00:53:14;;;;;;;6.00;1.75;;;;;;;-145.41;100.00;58600.66;4986951;28;20040;-75
2023/07/31 00:55:40;;;;;;;5.00;1.77;;;;;;;-145.41;100.00;58600.66;4982836;28;20121;-75
2023/07/31 00:58:05;;;;;;;3.33;1.75;;;;;;;-145.41;100.00;58600.66;4986341;28;20493;-75
2023/07/31 01:00:30;;;;;;;6.07;1.65;;;;;;;-145.41;100.00;58600.66;4983502;28;20062;-75
2023/07/31 01:02:56;;;;;;;3.88;1.60;;;;;;;-145.41;100.00;58600.66;4984758;28;20064;-75
2023/07/31 01:06:00;;;;;;;4.70;1.80;;;;;;;-145.41;100.00;58600.66;4985577;28;20039;-75
2023/07/31 01:08:51;;;;;;;5.82;1.88;;;;;;;-145.41;100.00;58600.66;4991653;28;20042;-74
2023/07/31 01:11:25;;;;;;;4.97;1.83;;;;;;;-145.41;100.00;58600.66;4985055;28;20134;-75
2023/07/31 01:13:51;;;;;;;5.35;1.60;;;;;;;-145.41;100.00;58600.66;4986859;28;20552;-75
2023/07/31 01:16:17;;;;;;;7.38;1.80;;;;;;;-145.41;100.00;58600.66;4986909;28;20133;-75
2023/07/31 01:18:42;;;;;;;6.13;1.40;;;;;;;-145.41;100.00;58600.66;4983097;28;20117;-75
2023/07/31 01:21:23;;;;;;;8.00;1.60;;;;;;;-145.41;100.00;58600.66;4984940;28;20048;-75
2023/07/31 01:24:06;;;;;;;4.90;1.42;;;;;;;-145.41;100.00;58600.66;4984659;28;20043;-75
2023/07/31 01:26:36;;;;;;;4.32;1.52;;;;;;;-145.41;100.00;58600.66;4986837;28;20044;-74
2023/07/31 01:29:06;;;;;;;4.45;1.60;;;;;;;-145.41;100.00;58600.66;4983676;28;20049;-75
2023/07/31 01:31:32;;;;;;;5.32;1.33;;;;;;;-145.41;100.00;58600.66;4984692;28;20466;-75
2023/07/31 01:34:01;;;;;;;3.35;1.10;;;;;;;-145.41;100.00;58600.66;4984581;28;20396;-75
2023/07/31 01:36:27;;;;;;;4.90;1.65;;;;;;;-145.41;100.00;58600.66;4985126;28;20038;-75
2023/07/31 01:38:52;;;;;;;4.13;1.35;;;;;;;-145.41;100.00;58600.66;4989839;28;20039;-75
2023/07/31 01:41:18;;;;;;;4.90;1.90;;;;;;;-145.41;100.00;58600.66;4990724;28;20034;-75
2023/07/31 01:43:45;;;;;;;5.03;1.58;;;;;;;-145.41;100.00;58600.66;4983560;28;20078;-75
2023/07/31 01:46:11;;;;;;;3.10;1.10;;;;;;;-145.41;100.00;58600.66;4985711;28;20505;-75
2023/07/31 01:48:36;;;;;;;5.93;1.60;;;;;;;-145.41;100.00;58600.66;4983079;28;20074;-75
2023/07/31 01:51:02;;;;;;;5.22;1.25;;;;;;;-145.41;100.00;58600.66;4985143;28;20452;-75
2023/07/31 01:53:29;;;;;;;6.63;1.85;;;;;;;-145.41;100.00;58600.66;4982816;28;20486;-75
2023/07/31 01:55:54;;;;;;;4.93;1.45;;;;;;;-145.41;100.00;58600.66;4986633;28;20040;-78
2023/07/31 01:58:20;;;;;;;3.67;1.52;;;;;;;-145.41;100.00;58600.66;4983673;28;20038;-78
2023/07/31 02:00:46;;;;;;;4.00;1.33;;;;;;;-145.41;100.00;58600.66;4984751;28;20105;-78
2023/07/31 02:03:11;;;;;;;5.28;1.50;;;;;;;-145.41;100.00;58600.66;4990840;28;20038;-78
2023/07/31 02:05:44;;;;;;;7.85;1.70;;;;;;;-145.41;100.00;58600.66;4983972;28;20034;-78
2023/07/31 02:08:09;;;;;;;3.70;1.02;;;;;;;-145.41;100.00;58600.66;4992809;28;20038;-78
2023/07/31 02:10:34;;;;;;;5.00;1.27;;;;;;;-145.41;100.00;58600.66;4984230;28;20031;-78
2023/07/31 02:13:00;;;;;;;5.00;1.20;;;;;;;-145.41;100.00;58600.66;4990913;28;20026;-78
2023/07/31 02:15:25;;;;;;;5.43;1.33;;;;;;;-145.41;100.00;58600.66;4987496;28;20046;-78
2023/07/31 02:17:51;;;;;;;6.18;1.83;;;;;;;-145.41;100.00;58600.66;4986338;28;20042;-78
2023/07/31 02:20:16;;;;;;;6.25;1.58;;;;;;;-145.41;100.00;58600.66;4982369;28;20043;-75
2023/07/31 02:22:41;;;;;;;4.85;1.30;;;;;;;-145.41;100.00;58600.66;4983600;28;20043;-76
2023/07/31 02:25:07;;;;;;;5.30;1.20;;;;;;;-145.41;100.00;58600.66;4983132;28;20050;-76
2023/07/31 02:27:32;;;;;;;3.90;1.25;;;;;;;-145.41;100.00;58600.66;4983406;28;20172;-76
2023/07/31 02:29:59;;;;;;;7.78;1.50;;;;;;;-145.41;100.00;58600.66;4983136;28;20086;-76
2023/07/31 02:32:24;;;;;;;4.32;1.20;;;;;;;-145.41;100.00;58600.66;4983420;28;20110;-75
2023/07/31 02:34:50;;;;;;;6.60;1.55;;;;;;;-145.41;100.00;58600.66;4983949;28;20105;-75
2023/07/31 02:37:16;;;;;;;6.13;1.50;;;;;;;-145.41;100.00;58600.66;4984390;28;20027;-76
2023/07/31 02:39:41;;;;;;;6.75;1.35;;;;;;;-145.41;100.00;58600.66;4991963;28;20069;-76
2023/07/31 02:42:06;;;;;;;5.78;1.52;;;;;;;-145.41;100.00;58600.66;4983021;28;20121;-76
2023/07/31 02:44:32;;;;;;;6.70;1.40;;;;;;;-145.41;100.00;58600.66;4982640;28;20070;-76
2023/07/31 02:46:57;;;;;;;4.35;1.27;;;;;;;-145.41;100.00;58600.66;4988220;28;20034;-76
2023/07/31 02:49:22;;;;;;;6.53;1.35;;;;;;;-145.41;100.00;58600.66;4983460;28;20573;-76
2023/07/31 02:51:48;;;;;;;3.95;1.17;;;;;;;-145.41;100.00;58600.66;4982519;28;20035;-75
2023/07/31 02:54:13;;;;;;;11.13;1.92;;;;;;;-145.41;100.00;58600.66;4984115;28;20062;-76
2023/07/31 02:56:38;;;;;;;3.45;1.45;;;;;;;-145.41;100.00;58600.66;5001307;28;20038;-76
2023/07/31 02:59:04;;;;;;;6.22;1.27;;;;;;;-145.41;100.00;58600.66;4985079;28;20509;-76
2023/07/31 03:01:29;;;;;;;4.10;1.33;;;;;;;-145.41;100.00;58600.66;4983662;28;20476;-78
2023/07/31 03:03:54;;;;;;;9.20;2.20;;;;;;;-145.41;100.00;58600.66;4986577;28;20038;-78
2023/07/31 03:06:20;;;;;;;5.68;1.48;;;;;;;-145.41;100.00;58600.66;4984163;28;20030;-78
2023/07/31 03:08:46;;;;;;;5.13;1.50;;;;;;;-145.41;100.00;58600.66;4990229;28;20054;-78
2023/07/31 03:11:11;;;;;;;3.38;1.30;;;;;;;-145.41;100.00;58600.66;4983426;28;20027;-78
2023/07/31 03:13:36;;;;;;;3.83;1.45;;;;;;;-145.41;100.00;58600.66;4987152;28;20074;-78
2023/07/31 03:16:02;;;;;;;4.63;1.45;;;;;;;-145.41;100.00;58600.66;4985613;28;20030;-78
2023/07/31 03:18:27;;;;;;;6.63;1.60;;;;;;;-145.41;100.00;58600.66;4986391;28;20044;-78
2023/07/31 03:20:52;;;;;;;4.35;1.80;;;;;;;-145.41;100.00;58600.66;4982677;28;20042;-78
2023/07/31 03:23:18;;;;;;;6.57;2.17;;;;;;;-145.41;100.00;58600.66;4986632;28;20042;-78
2023/07/31 03:25:57;;;;;;;7.03;1.70;;;;;;;-145.41;100.00;58600.66;4982119;28;20035;-78
2023/07/31 03:28:23;;;;;;;4.40;2.08;;;;;;;-145.41;100.00;58600.66;4997430;28;20035;-78
2023/07/31 03:30:48;;;;;;;7.60;1.90;;;;;;;-145.41;100.00;58600.66;4982101;28;20045;-76
2023/07/31 03:33:14;;;;;;;5.55;1.70;;;;;;;-145.41;100.00;58600.66;4986150;28;20030;-75
2023/07/31 03:35:39;;;;;;;7.65;2.42;;;;;;;-145.41;100.00;58600.66;4984497;28;20047;-75
2023/07/31 03:38:05;;;;;;;5.57;1.98;;;;;;;-145.41;100.00;58600.66;4985354;28;20042;-75
2023/07/31 03:40:30;;;;;;;7.20;2.38;;;;;;;-145.41;100.00;58600.66;4982129;28;20042;-76
2023/07/31 03:42:55;;;;;;;7.05;2.05;;;;;;;-145.41;100.00;58600.66;4983953;28;20026;-76
2023/07/31 03:45:21;;;;;;;6.45;2.17;;;;;;;-145.41;100.00;58600.66;4975571;28;20041;-76
2023/07/31 03:47:46;;;;;;;6.75;2.13;;;;;;;-145.41;100.00;58600.66;4987889;28;20030;-76
2023/07/31 03:50:11;;;;;;;7.50;2.30;;;;;;;-145.41;100.00;58600.66;4981747;28;20553;-75
2023/07/31 03:52:37;;;;;;;6.68;2.72;;;;;;;-145.41;100.00;58600.66;4990445;28;20513;-76
2023/07/31 03:55:02;;;;;;;8.60;2.25;;;;;;;-145.41;100.00;58600.66;4990498;28;20405;-76
2023/07/31 03:57:27;;;;;;;7.95;2.25;;;;;;;-145.41;100.00;58600.66;4989371;28;20492;-76
2023/07/31 03:59:53;;;;;;;4.65;1.90;;;;;;;-145.41;100.00;58600.66;4981012;28;20133;-75
2023/07/31 04:02:18;;;;;;;5.38;1.70;;;;;;;-145.41;100.00;58600.66;4984155;28;20070;-76
2023/07/31 04:04:44;;;;;;;5.70;1.60;;;;;;;-145.41;100.00;58600.66;4987237;28;20035;-75
2023/07/31 04:07:09;;;;;;;5.57;1.75;;;;;;;-145.41;100.00;58600.66;4981677;28;20397;-76
2023/07/31 04:09:34;;;;;;;8.15;2.55;;;;;;;-145.41;100.00;58600.66;4983904;28;20068;-75
2023/07/31 04:12:00;;;;;;;5.95;2.17;;;;;;;-145.41;100.00;58600.66;4983880;28;20030;-76
2023/07/31 04:14:25;;;;;;;5.72;1.98;;;;;;;-145.41;100.00;58600.66;4982555;28;20084;-76
2023/07/31 04:16:50;;;;;;;5.32;2.15;;;;;;;-145.41;100.00;58600.66;4982683;28;20035;-76
2023/07/31 04:19:16;;;;;;;5.40;1.83;;;;;;;-145.41;100.00;58600.66;4983045;28;20409;-76
2023/07/31 04:21:42;;;;;;;5.18;2.00;;;;;;;-145.41;100.00;58600.66;4988129;28;20027;-76
2023/07/31 04:24:07;;;;;;;6.63;1.95;;;;;;;-145.41;100.00;58600.66;4984393;28;20042;-76
2023/07/31 04:26:33;;;;;;;9.88;2.58;;;;;;;-145.41;100.00;58600.66;4984980;28;20548;-76
2023/07/31 04:28:58;;;;;;;6.43;1.90;;;;;;;-145.41;100.00;58600.66;4982990;28;20490;-76
2023/07/31 04:31:23;;;;;;;8.48;2.63;;;;;;;-145.41;100.00;58600.66;4985639;28;20604;-76
2023/07/31 04:33:49;;;;;;;5.70;2.50;;;;;;;-145.41;100.00;58600.66;4989624;28;20038;-76
2023/07/31 04:36:14;;;;;;;7.30;2.63;;;;;;;-145.41;100.00;58600.66;4989314;28;20101;-76
2023/07/31 04:38:40;;;;;;;7.80;2.20;;;;;;;-145.41;100.00;58600.66;4990962;28;20073;-76
2023/07/31 04:41:06;;;;;;;8.27;2.33;;;;;;;-145.41;100.00;58600.66;4988067;28;20037;-76
2023/07/31 04:43:31;;;;;;;6.60;1.98;;;;;;;-145.41;100.00;58600.66;4989513;28;20026;-76
2023/07/31 04:45:57;;;;;;;7.35;2.80;;;;;;;-145.41;100.00;58600.66;4989021;28;20517;-76
2023/07/31 04:48:23;;;;;;;6.53;2.75;;;;;;;-145.41;100.00;58600.66;4988010;28;20041;-76
2023/07/31 04:50:48;;;;;;;7.43;2.70;;;;;;;-145.41;100.00;58600.66;4988344;28;20030;-76
2023/07/31 04:53:14;;;;;;;5.85;2.53;;;;;;;-145.41;100.00;58600.66;4982717;28;20501;-76
2023/07/31 04:55:39;;;;;;;7.65;2.17;;;;;;;-145.41;100.00;58600.66;4984019;28;20030;-76
2023/07/31 04:58:05;;;;;;;5.20;1.92;;;;;;;-145.41;100.00;58600.66;4971513;28;20458;-76
2023/07/31 05:00:30;;;;;;;5.65;2.20;;;;;;;-145.41;100.00;58600.66;4986191;28;20101;-76
2023/07/31 05:02:56;;;;;;;6.53;2.17;;;;;;;-145.41;100.00;58600.66;4989857;28;20052;-76
2023/07/31 05:05:21;;;;;;;7.93;2.60;;;;;;;-145.41;100.00;58600.66;4986310;28;20042;-76
2023/07/31 05:07:46;;;;;;;4.97;1.80;;;;;;;-145.41;100.00;58600.66;4988315;28;20081;-76
2023/07/31 05:10:12;;;;;;;9.50;3.05;;;;;;;-145.41;100.00;58600.66;4981655;28;20121;-76
2023/07/31 05:12:37;;;;;;;10.45;4.25;;;;;;;-145.41;100.00;58600.66;4985542;28;20080;-76
2023/07/31 05:15:03;;;;;;;3.97;2.05;;;;;;;-145.41;100.00;58600.66;4985729;28;20069;-76
2023/07/31 05:17:28;;;;;;;7.45;2.28;;;;;;;-145.41;100.00;58600.66;4983355;28;20034;-76
2023/07/31 05:19:53;;;;;;;4.25;2.00;;;;;;;-145.41;100.00;58600.66;4982002;28;20042;-76
2023/07/31 05:22:19;;;;;;;6.90;2.00;;;;;;;-145.41;100.00;58600.66;4983955;28;20043;-76
2023/07/31 05:24:44;;;;;;;6.30;2.38;;;;;;;-145.41;100.00;58600.66;4989603;28;20069;-76
2023/07/31 05:27:10;;;;;;;7.57;2.35;;;;;;;-145.41;100.00;58600.66;4984558;28;20492;-76
2023/07/31 05:29:35;;;;;;;4.68;1.80;;;;;;;-145.41;100.00;58600.66;4991280;28;20537;-76
2023/07/31 05:32:01;;;;;;;7.05;2.13;;;;;;;-145.41;100.00;58600.66;4984349;28;20038;-76
2023/07/31 05:34:26;;;;;;;6.85;2.50;;;;;;;-145.41;100.00;58600.66;4984955;28;20046;-76
2023/07/31 05:36:52;;;;;;;7.15;2.22;;;;;;;-145.41;100.00;58600.66;4983856;28;20030;-76
2023/07/31 05:39:19;;;;;;;5.88;2.40;;;;;;;-145.41;100.00;58600.66;4980003;28;20584;-76
2023/07/31 05:41:44;;;;;;;5.72;2.47;;;;;;;-145.41;100.00;58600.66;4986728;28;20508;-75
2023/07/31 05:44:10;;;;;;;4.70;2.00;;;;;;;-145.41;100.00;58600.66;4983708;28;20045;-76
2023/07/31 05:46:35;;;;;;;4.78;2.20;;;;;;;-145.41;100.00;58600.66;4985373;28;20053;-76
2023/07/31 05:49:01;;;;;;;6.97;2.45;;;;;;;-145.41;100.00;58600.66;4982542;28;20089;-76
2023/07/31 05:51:27;;;;;;;6.90;1.85;;;;;;;-145.41;100.00;58600.66;4985429;28;20389;-76
2023/07/31 05:53:53;;;;;;;6.90;2.15;;;;;;;-145.41;100.00;58600.66;4982982;28;20039;-75
2023/07/31 05:56:18;;;;;;;5.72;1.90;;;;;;;-145.41;100.00;58600.66;4985637;28;20126;-76
2023/07/31 05:58:43;;;;;;;7.40;2.30;;;;;;;-145.41;100.00;58600.66;4982098;28;20035;-76
2023/07/31 06:01:09;;;;;;;7.55;2.40;;;;;;;-145.41;100.00;58600.66;4985065;28;20114;-76
2023/07/31 06:03:34;;;;;;;5.63;1.98;;;;;;;-145.41;100.00;58600.66;4981288;28;20033;-76
2023/07/31 06:05:59;;;;;;;4.07;1.50;;;;;;;-145.41;100.00;58600.66;4985799;28;20069;-76
2023/07/31 06:08:25;;;;;;;4.63;1.77;;;;;;;-145.41;100.00;58600.66;4986771;28;20046;-76
2023/07/31 06:10:50;;;;;;;6.53;2.10;;;;;;;-145.41;100.00;58600.66;4983934;28;20073;-76
2023/07/31 06:13:15;;;;;;;5.38;2.30;;;;;;;-145.41;100.00;58600.66;4985689;28;20035;-76
2023/07/31 06:15:41;;;;;;;5.95;2.38;;;;;;;-145.41;100.00;58600.66;4985776;28;20085;-76
2023/07/31 06:18:07;;;;;;;5.85;1.90;;;;;;;-145.41;100.00;58600.66;4982041;28;20046;-75
2023/07/31 06:20:34;;;;;;;6.03;2.45;;;;;;;-145.41;100.00;58600.66;4987774;28;20049;-76
2023/07/31 06:22:59;;;;;;;8.95;2.35;;;;;;;-145.41;100.00;58600.66;4981644;28;20446;-76
2023/07/31 06:25:24;;;;;;;5.90;2.22;;;;;;;-145.41;100.00;58600.66;4986036;28;20042;-76
2023/07/31 06:27:50;;;;;;;6.72;2.35;;;;;;;-145.41;100.00;58600.66;4984772;28;20034;-76
2023/07/31 06:30:15;;;;;;;6.93;2.42;;;;;;;-145.41;100.00;58600.66;4981837;28;20417;-76
2023/07/31 06:32:40;;;;;;;8.52;2.35;;;;;;;-145.41;100.00;58600.66;4986361;28;20509;-76
2023/07/31 06:35:06;;;;;;;6.10;2.67;;;;;;;-145.41;100.00;58600.66;4982541;28;20074;-76
2023/07/31 06:37:32;;;;;;;9.40;3.20;;;;;;;-145.41;100.00;58600.66;4987749;28;20113;-76
2023/07/31 06:39:57;;;;;;;8.77;3.15;;;;;;;-145.41;100.00;58600.66;4983470;28;20034;-76
2023/07/31 06:42:22;;;;;;;8.48;3.30;;;;;;;-145.41;100.00;58600.66;4982641;28;20702;-76
2023/07/31 06:44:48;;;;;;;8.88;3.90;;;;;;;-145.41;100.00;58600.66;4988634;28;20174;-76
2023/07/31 06:47:13;;;;;;;9.65;4.20;;;;;;;-145.41;100.00;58600.66;4983778;28;20042;-76
2023/07/31 06:49:38;;;;;;;6.25;3.22;;;;;;;-145.41;100.00;58600.66;4981208;28;20498;-76
2023/07/31 06:52:04;;;;;;;8.35;3.55;;;;;;;-145.41;100.00;58600.66;4983310;28;20526;-76
2023/07/31 06:54:29;;;;;;;7.72;2.65;;;;;;;-145.41;100.00;58600.66;4982697;28;20529;-76
2023/07/31 06:56:54;;;;;;;6.50;3.60;;;;;;;-145.41;100.00;58600.66;4983436;28;20113;-76
2023/07/31 06:59:20;;;;;;;8.40;3.03;;;;;;;-145.41;100.00;58600.66;4981902;28;20408;-76
2023/07/31 07:01:45;;;;;;;7.68;3.58;;;;;;;-145.41;100.00;58600.66;4981710;28;20038;-76
2023/07/31 07:04:10;;;;;;;7.63;3.58;;;;;;;-145.41;100.00;58600.66;4985863;28;20106;-76
2023/07/31 07:06:36;;;;;;;8.82;3.70;;;;;;;-145.41;100.00;58600.66;4985008;28;20047;-76
2023/07/31 07:09:02;;;;;;;9.25;3.78;;;;;;;-145.41;100.00;58600.66;4987679;28;20470;-76
2023/07/31 07:11:27;;;;;;;6.22;3.10;;;;;;;-145.41;100.00;58600.66;4985291;28;20046;-76
2023/07/31 07:13:52;;;;;;;7.35;2.70;;;;;;;-145.41;100.00;58600.66;4988046;28;20061;-76
2023/07/31 07:16:18;;;;;;;5.38;2.80;;;;;;;-145.41;100.00;58600.66;4987129;28;20518;-76
2023/07/31 07:18:43;;;;;;;7.07;2.85;;;;;;;-145.41;100.00;58600.66;4983045;28;20070;-76
2023/07/31 07:21:08;;;;;;;5.55;2.60;;;;;;;-145.41;100.00;58600.66;4984014;28;20088;-76
2023/07/31 07:23:34;;;;;;;8.00;3.58;;;;;;;-145.41;100.00;58600.66;4984424;28;20129;-76
2023/07/31 07:25:59;;;;;;;4.60;2.40;;;;;;;-145.41;100.00;58600.66;4982184;28;20066;-76
2023/07/31 07:28:25;;;;;;;5.07;1.98;;;;;;;-145.41;100.00;58600.66;4982875;28;20049;-76
2023/07/31 07:30:53;;;;;;;8.18;2.40;;;;;;;-145.41;100.00;58600.66;4983632;28;20100;-75
2023/07/31 07:33:19;;;;;;;5.32;2.78;;;;;;;-145.41;100.00;58600.66;4985759;28;20038;-76
2023/07/31 07:35:44;;;;;;;8.50;2.70;;;;;;;-145.41;100.00;58600.66;4987814;28;20207;-76
2023/07/31 07:38:09;;;;;;;7.75;3.30;;;;;;;-145.41;100.00;58600.66;4984698;28;20524;-76
2023/07/31 07:40:39;;;;;;;6.90;3.10;;;;;;;-145.41;100.00;58600.66;4987431;28;20050;-76
2023/07/31 07:43:04;;;;;;;6.47;2.50;;;;;;;-145.41;100.00;58600.66;4982828;28;20047;-76
2023/07/31 07:45:29;;;;;;;6.78;2.50;;;;;;;-145.41;100.00;58600.66;4981271;28;20044;-76
2023/07/31 07:47:55;;;;;;;6.15;3.03;;;;;;;-145.41;100.00;58600.66;4983079;28;20116;-76
2023/07/31 07:50:20;;;;;;;9.82;2.97;;;;;;;-145.41;100.00;58600.66;4987367;28;20046;-76
2023/07/31 07:52:45;;;;;;;5.38;2.67;;;;;;;-145.41;100.00;58600.66;4989503;28;20030;-76
2023/07/31 07:55:11;;;;;;;5.18;2.70;;;;;;;-145.41;100.00;58600.66;4982445;28;20042;-76
2023/07/31 07:57:36;;;;;;;8.48;3.00;;;;;;;-145.41;100.00;58600.66;4980674;28;20042;-76
2023/07/31 08:00:02;;;;;;;9.68;2.88;;;;;;;-145.41;100.00;58600.66;4982754;28;20049;-76
2023/07/31 08:02:39;;;;;;;5.60;2.20;;;;;;;-145.41;100.00;58600.66;4982455;28;20038;-76
2023/07/31 08:05:04;;;;;;;8.75;2.80;;;;;;;-145.41;100.00;58600.66;4981774;28;20046;-76
2023/07/31 08:07:30;;;;;;;7.15;2.10;;;;;;;-145.41;100.00;58600.66;4983686;28;20048;-76
2023/07/31 08:09:55;;;;;;;7.35;2.05;;;;;;;-145.41;100.00;58600.66;4980919;28;20041;-76
2023/07/31 08:12:20;;;;;;;9.05;2.40;;;;;;;-145.41;100.00;58600.66;4984051;28;20034;-76
2023/07/31 08:14:46;;;;;;;5.43;2.00;;;;;;;-145.41;100.00;58600.66;4983764;28;20148;-76
2023/07/31 08:17:11;;;;;;;6.30;1.90;;;;;;;-145.41;100.00;58600.66;4982796;28;20104;-76
2023/07/31 08:19:36;;;;;;;4.75;1.88;;;;;;;-145.41;100.00;58600.66;4980878;28;20046;-76
2023/07/31 08:22:02;;;;;;;6.10;2.10;;;;;;;-145.41;100.00;58600.66;4982738;28;20034;-76
2023/07/31 08:24:27;;;;;;;7.82;2.53;;;;;;;-145.41;100.00;58600.66;4980980;28;20050;-76
2023/07/31 08:26:52;;;;;;;4.57;2.00;;;;;;;-145.41;100.00;58600.66;4981848;28;20030;-76
2023/07/31 08:29:18;;;;;;;7.10;1.77;;;;;;;-145.41;100.00;58600.66;4981819;28;20070;-76
2023/07/31 08:31:43;;;;;;;5.40;1.90;;;;;;;-145.41;100.00;58600.66;4982931;28;20058;-76
2023/07/31 08:34:08;;;;;;;5.55;1.50;;;;;;;-145.41;100.00;58600.66;4979964;28;20521;-76
2023/07/31 08:36:34;;;;;;;6.18;2.38;;;;;;;-145.41;100.00;58600.66;4980558;28;20523;-76
2023/07/31 08:38:59;;;;;;;4.72;1.90;;;;;;;-145.41;100.00;58600.66;4983203;28;20421;-76
2023/07/31 08:41:25;;;;;;;7.95;2.45;;;;;;;-145.41;100.00;58600.66;4983115;28;20047;-76
2023/07/31 08:43:52;;;;;;;13.02;2.97;;;;;;;-145.41;100.00;58600.66;4986861;28;20053;-77
2023/07/31 08:46:18;;;;;;;5.07;2.10;;;;;;;-145.41;100.00;58600.66;4986952;28;20042;-76
2023/07/31 08:48:45;;;;;;;7.95;1.83;;;;;;;-145.41;100.00;58600.66;4986595;28;20498;-76
2023/07/31 08:51:10;;;;;;;4.60;2.00;;;;;;;-145.41;100.00;58600.66;4985354;28;20038;-76
2023/07/31 08:53:36;;;;;;;4.90;2.10;;;;;;;-145.41;100.00;58600.66;4990951;28;20026;-77
2023/07/31 08:56:02;;;;;;;5.70;2.10;;;;;;;-145.41;100.00;58600.66;4988536;28;20444;-76
2023/07/31 08:58:31;;;;;;;4.93;1.80;;;;;;;-145.41;100.00;58600.66;4984036;28;20494;-76
2023/07/31 09:01:00;;;;;;;6.95;2.25;;;;;;;-145.41;100.00;58600.66;4985261;28;20509;-76
2023/07/31 09:03:26;;;;;;;8.25;2.78;;;;;;;-145.41;100.00;58600.66;4987217;28;20394;-76
2023/07/31 09:05:52;;;;;;;6.43;2.30;;;;;;;-145.41;100.00;58600.66;4989050;28;20045;-76
2023/07/31 09:08:20;;;;;;;4.90;1.80;;;;;;;-145.41;100.00;58600.66;4990583;28;20034;-76
2023/07/31 09:10:46;;;;;;;7.13;3.00;;;;;;;-145.41;100.00;58600.66;4983687;28;20031;-76
2023/07/31 09:13:14;;;;;;;6.43;2.92;;;;;;;-145.41;100.00;58600.66;4986807;28;20035;-76
2023/07/31 09:15:42;;;;;;;7.00;2.53;;;;;;;-145.41;100.00;58600.66;4987394;28;20045;-76
2023/07/31 09:18:09;;;;;;;4.75;1.80;;;;;;;-145.41;100.00;58600.66;4986651;28;20520;-76
2023/07/31 09:20:36;;;;;;;14.30;3.03;;;;;;;-145.41;100.00;58600.66;4986363;28;20039;-76
2023/07/31 09:23:13;;;;;;;4.60;1.90;;;;;;;-145.41;100.00;58600.66;4986190;28;20034;-76
2023/07/31 09:25:39;;;;;;;7.75;2.17;;;;;;;-145.41;100.00;58600.66;4989395;28;20684;-76
2023/07/31 09:28:07;;;;;;;6.20;2.08;;;;;;;-145.41;100.00;58600.66;4985472;28;20040;-76
2023/07/31 09:30:47;;;;;;;9.32;3.22;;;;;;;-145.41;100.00;58600.66;4991680;28;20058;-76
2023/07/31 09:33:13;;;;;;;5.85;1.90;;;;;;;-145.41;100.00;58600.66;4983664;28;20034;-76
2023/07/31 09:35:40;;;;;;;6.05;2.42;;;;;;;-145.41;100.00;58600.66;4990544;28;20070;-76
2023/07/31 09:38:08;;;;;;;7.22;2.40;;;;;;;-145.41;100.00;58600.66;4991566;28;20125;-76
2023/07/31 09:40:39;;;;;;;7.57;2.97;;;;;;;-145.41;100.00;58600.66;4987411;28;20093;-76
2023/07/31 09:43:10;;;;;;;5.75;2.60;;;;;;;-145.41;100.00;58600.66;4983649;28;20038;-76
2023/07/31 09:45:37;;;;;;;4.90;2.33;;;;;;;-145.41;100.00;58600.66;4983192;28;20435;-77
2023/07/31 09:48:03;;;;;;;6.78;3.30;;;;;;;-145.41;100.00;58600.66;4992132;28;20062;-76
2023/07/31 09:50:29;;;;;;;7.00;2.67;;;;;;;-145.41;100.00;58600.66;4982165;28;20072;-76
2023/07/31 09:52:54;;;;;;;8.55;3.35;;;;;;;-145.41;100.00;58600.66;4986075;28;20477;-77
2023/07/31 09:55:20;;;;;;;5.28;1.75;;;;;;;-145.41;100.00;58600.66;4982388;28;20053;-77
2023/07/31 09:57:47;;;;;;;7.78;1.90;;;;;;;-145.41;100.00;58600.66;4983628;28;20074;-76
2023/07/31 10:00:15;;;;;;;4.85;1.92;;;;;;;-145.41;100.00;58600.66;4983902;28;20062;-76
2023/07/31 10:02:41;;;;;;;7.35;2.65;;;;;;;-145.41;100.00;58600.66;4989763;28;20046;-76
2023/07/31 10:05:07;;;;;;;5.18;2.25;;;;;;;-145.41;100.00;58600.66;4985323;28;20039;-76
2023/07/31 10:07:39;;;;;;;5.13;1.75;;;;;;;-145.41;100.00;58600.66;4987964;28;20034;-76
2023/07/31 10:10:06;;;;;;;5.32;2.03;;;;;;;-145.41;100.00;58600.66;4983437;28;20049;-76
2023/07/31 10:12:34;;;;;;;7.18;1.90;;;;;;;-145.41;100.00;58600.66;4985951;28;20045;-76
2023/07/31 10:15:00;;;;;;;7.07;2.92;;;;;;;-145.41;100.00;58600.66;4988312;28;20604;-76
2023/07/31 10:17:26;;;;;;;5.80;1.70;;;;;;;-145.41;100.00;58600.66;4986195;28;20141;-76
2023/07/31 10:19:53;;;;;;;5.05;2.38;;;;;;;-145.41;100.00;58600.66;4983574;28;20193;-76
2023/07/31 10:22:20;;;;;;;4.97;1.90;;;;;;;-145.41;100.00;58600.66;4984208;28;20035;-76
2023/07/31 10:24:46;;;;;;;6.15;2.30;;;;;;;-145.41;100.00;58600.66;4985538;28;20069;-76
2023/07/31 10:27:12;;;;;;;6.75;2.13;;;;;;;-145.41;100.00;58600.66;4991014;28;20648;-76
2023/07/31 10:29:43;;;;;;;5.10;2.10;;;;;;;-145.41;100.00;58600.66;4990920;28;20038;-76
2023/07/31 10:32:11;;;;;;;4.93;2.38;;;;;;;-145.41;100.00;58600.66;4990874;28;20034;-76
2023/07/31 10:34:39;;;;;;;6.97;2.75;;;;;;;-145.41;100.00;58600.66;4985215;28;20545;-76
2023/07/31 10:37:20;;;;;;;6.57;2.75;;;;;;;-145.41;100.00;58600.66;4986975;28;20026;-75
2023/07/31 10:39:55;;;;;;;6.28;2.50;;;;;;;-145.41;100.00;58600.66;4984105;28;20031;-76
2023/07/31 10:42:27;;;;;;;6.38;3.10;;;;;;;-145.41;100.00;58600.66;4982736;28;20035;-77
2023/07/31 10:44:55;;;;;;;;;;;;;;;-145.41;100.00;58600.66;4983358;28;20482;-76
2023/07/31 10:47:20;;;;;;;6.07;2.70;;;;;;;-145.41;100.00;58600.66;4983855;28;20340;-76
2023/07/31 10:49:46;;;;;;;5.95;2.25;;;;;;;-145.41;100.00;58600.66;4981887;28;20042;-76
2023/07/31 10:52:13;;;;;;;4.75;2.17;;;;;;;-145.41;100.00;58600.66;4984632;28;20046;-76
2023/07/31 10:54:38;;;;;;;4.75;1.92;;;;;;;-145.41;100.00;58600.66;4982056;28;20417;-76
2023/07/31 10:57:19;;;;;;;5.72;2.05;;;;;;;-145.41;100.00;58600.66;4983114;28;20026;-76
2023/07/31 10:59:44;;;;;;;4.28;2.33;;;;;;;-145.41;100.00;58600.66;4984990;28;20030;-76
2023/07/31 11:02:26;;;;;;;5.57;2.38;;;;;;;-145.41;100.00;58600.66;4984626;28;20401;-76
2023/07/31 11:05:10;;;;;;;6.72;2.55;;;;;;;-145.41;100.00;58600.66;4987716;28;20034;-76
2023/07/31 11:07:50;;;;;;;3.63;1.80;;;;;;;-145.41;100.00;58600.66;4989050;28;20038;-76